Time;durP1;ratioP1;P1;durP2;ratioP2;P2;SDS_P1;SDS_P2;PMS_P1;PMS_P2;Temp;Humidity;BMP_temperature;BMP_pressure;BME280_temperature;BME280_humidity;BME280_pressure;Samples;Min_cycle;Max_cycle;Signal;HPM_P1;HPM_P2
2022/09/21 00:02:00;;;;;;;15.90;10.33;;;7.10;99.90;;;;;;2616547;39;20747;-75
2022/09/21 00:07:47;;;;;;;19.50;10.60;;;7.10;99.90;;;;;;2616109;54;20119;-74
2022/09/21 00:13:36;;;;;;;17.53;10.60;;;7.00;99.90;;;;;;2616226;54;20169;-74
2022/09/21 00:19:24;;;;;;;12.30;10.00;;;7.00;99.90;;;;;;2616179;54;20419;-74
2022/09/21 00:25:12;;;;;;;17.60;10.03;;;7.00;99.90;;;;;;2616400;39;20212;-74
2022/09/21 00:31:05;;;;;;;14.23;10.00;;;7.10;99.90;;;;;;2615955;54;20811;-73
2022/09/21 00:34:15;;;;;;;12.63;9.70;;;6.80;99.90;;;;;;2616531;54;20417;-73
2022/09/21 00:36:41;;;;;;;12.07;9.90;;;6.80;99.90;;;;;;2464461;54;20464;-74
2022/09/21 00:42:32;;;;;;;18.20;9.67;;;7.00;99.90;;;;;;2614168;54;20147;-74
2022/09/21 00:48:19;;;;;;;16.53;11.20;;;7.20;99.90;;;;;;2615208;54;20417;-74
2022/09/21 00:54:13;;;;;;;14.40;10.40;;;7.00;99.90;;;;;;2614633;54;20142;-73
2022/09/21 01:06:32;;;;;;;18.70;10.00;;;6.70;99.90;;;;;;2616163;54;20184;-74
2022/09/21 01:12:23;;;;;;;14.38;10.00;;;6.70;99.90;;;;;;2616543;54;20737;-74
2022/09/21 01:18:15;;;;;;;10.83;9.60;;;6.60;99.90;;;;;;2616870;39;20790;-74
2022/09/21 01:24:16;;;;;;;11.63;10.43;;;6.40;99.90;;;;;;2616481;54;20406;-74
2022/09/21 01:30:10;;;;;;;13.90;9.00;;;6.50;99.90;;;;;;2616514;54;20382;-75
2022/09/21 01:39:37;;;;;;;13.87;9.43;;;6.40;99.90;;;;;;2617265;39;20785;-74
2022/09/21 01:51:45;;;;;;;11.40;9.27;;;6.30;99.90;;;;;;2617108;54;21017;-74
2022/09/21 02:04:12;;;;;;;10.60;9.50;;;6.20;99.90;;;;;;2617058;54;20396;-74
2022/09/21 02:10:01;;;;;;;14.30;10.27;;;6.20;99.90;;;;;;2616643;54;20362;-75
2022/09/21 02:39:33;;;;;;;13.10;10.50;;;6.20;99.90;;;;;;2614481;54;21074;-73
2022/09/21 02:45:25;;;;;;;15.73;10.13;;;6.00;99.90;;;;;;2614627;54;20434;-73
2022/09/21 02:57:28;;;;;;;14.45;9.82;;;5.90;99.90;;;;;;2615316;54;20447;-73
2022/09/21 03:03:22;;;;;;;12.95;9.65;;;5.70;99.90;;;;;;2615394;54;20293;-74
2022/09/21 03:09:09;;;;;;;18.93;9.73;;;6.00;99.90;;;;;;2612267;54;20162;-73
2022/09/21 03:14:57;;;;;;;12.10;9.00;;;5.90;99.90;;;;;;2614039;54;20275;-72
2022/09/21 03:20:45;;;;;;;15.63;9.27;;;5.90;99.90;;;;;;2614785;54;20135;-73
2022/09/21 03:26:33;;;;;;;13.87;9.13;;;5.90;99.90;;;;;;2614471;54;20158;-73
2022/09/21 03:32:21;;;;;;;14.97;8.97;;;5.70;99.90;;;;;;2614763;54;20140;-72
2022/09/21 03:35:03;;;;;;;14.60;10.00;;;5.60;99.90;;;;;;2613118;47;20499;-73
2022/09/21 03:37:29;;;;;;;10.73;9.60;;;5.60;99.90;;;;;;2614707;46;20182;-73
2022/09/21 03:43:17;;;;;;;9.83;8.83;;;5.50;99.90;;;;;;2615418;54;20373;-72
2022/09/21 03:49:05;;;;;;;13.37;9.47;;;5.50;99.90;;;;;;2612846;54;20399;-73
2022/09/21 03:54:53;;;;;;;9.53;8.53;;;5.50;99.90;;;;;;2615260;39;20535;-72
2022/09/21 04:00:41;;;;;;;12.35;8.80;;;5.50;99.90;;;;;;2615161;54;20359;-74
2022/09/21 04:06:29;;;;;;;13.00;8.10;;;5.40;99.90;;;;;;2613080;54;20134;-73
2022/09/21 04:12:21;;;;;;;11.73;9.17;;;5.30;99.90;;;;;;2613854;54;20137;-73
2022/09/21 04:18:08;;;;;;;11.90;10.07;;;5.30;99.90;;;;;;2615121;31;20842;-73
2022/09/21 04:23:56;;;;;;;12.53;8.00;;;5.20;99.90;;;;;;2613590;54;20204;-75
2022/09/21 04:29:44;;;;;;;10.03;8.43;;;5.10;99.90;;;;;;2614138;39;20550;-74
2022/09/21 04:39:34;;;;;;;11.03;8.60;;;5.10;99.90;;;;;;2613711;54;20422;-72
2022/09/21 04:45:22;;;;;;;10.20;9.10;;;5.20;99.90;;;;;;2614752;54;20392;-73
2022/09/21 04:51:11;;;;;;;11.00;9.20;;;5.00;99.90;;;;;;2613498;54;20383;-74
2022/09/21 04:56:59;;;;;;;15.00;10.13;;;5.00;99.90;;;;;;2615133;54;20372;-72
2022/09/21 05:02:46;;;;;;;26.87;11.97;;;5.10;99.90;;;;;;2614948;54;20234;-72
2022/09/21 05:14:42;;;;;;;13.17;9.27;;;5.10;99.90;;;;;;2613937;54;20949;-72
2022/09/21 05:20:30;;;;;;;21.03;11.70;;;4.90;99.90;;;;;;2614591;54;20431;-72
2022/09/21 05:26:19;;;;;;;13.23;10.93;;;5.10;99.90;;;;;;2614639;54;20133;-73
2022/09/21 05:32:24;;;;;;;14.67;11.10;;;5.20;99.90;;;;;;2613869;54;20375;-74
2022/09/21 05:38:28;;;;;;;18.43;11.30;;;5.20;99.90;;;;;;2611578;39;21274;-73
2022/09/21 05:44:16;;;;;;;14.40;12.00;;;5.40;99.90;;;;;;2609716;39;20799;-74
2022/09/21 06:10:08;;;;;;;19.67;12.83;;;5.90;99.90;;;;;;2614596;54;20396;-71
2022/09/21 06:15:57;;;;;;;28.57;12.30;;;6.20;99.90;;;;;;2616150;54;20944;-73
2022/09/21 06:21:45;;;;;;;14.47;10.20;;;7.50;99.90;;;;;;2615088;46;20397;-72
2022/09/21 06:27:33;;;;;;;13.43;8.60;;;9.00;99.90;;;;;;2615792;54;20223;-72
2022/09/21 06:33:22;;;;;;;17.03;10.83;;;9.90;99.90;;;;;;2614107;54;20123;-72
2022/09/21 06:42:38;;;;;;;16.70;11.77;;;11.00;99.90;;;;;;2614567;54;20399;-74
2022/09/21 06:48:28;;;;;;;18.08;10.02;;;11.70;99.90;;;;;;2615399;46;20407;-73
2022/09/21 06:54:17;;;;;;;9.55;8.65;;;12.00;99.90;;;;;;2615241;54;20483;-73
2022/09/21 07:00:07;;;;;;;15.07;8.90;;;12.50;99.90;;;;;;2614802;54;20439;-73
2022/09/21 07:05:55;;;;;;;13.40;7.60;;;12.60;99.90;;;;;;2615074;39;20781;-72
2022/09/21 07:11:43;;;;;;;11.63;8.23;;;12.80;99.90;;;;;;2614599;54;20122;-74
2022/09/21 07:17:33;;;;;;;9.63;7.93;;;13.30;99.90;;;;;;2615706;54;20138;-73
2022/09/21 07:23:21;;;;;;;10.33;7.30;;;13.30;99.90;;;;;;2614209;54;20359;-72
2022/09/21 07:29:09;;;;;;;9.63;7.07;;;14.00;99.90;;;;;;2615342;46;21069;-73
2022/09/21 07:34:56;;;;;;;8.77;7.60;;;15.30;99.90;;;;;;2615000;54;20121;-72
2022/09/21 07:38:06;;;;;;;14.33;7.57;;;15.10;99.90;;;;;;2613469;54;20408;-72
2022/09/21 07:40:32;;;;;;;8.30;7.47;;;15.40;99.90;;;;;;2614548;46;20452;-72
2022/09/21 07:46:20;;;;;;;7.50;6.80;;;15.60;99.90;;;;;;2614206;54;20230;-71
2022/09/21 07:52:08;;;;;;;6.57;5.87;;;16.00;96.10;;;;;;2614028;54;20156;-73
2022/09/21 08:04:03;;;;;;;9.57;5.80;;;16.50;84.80;;;;;;2615109;54;20388;-72
2022/09/21 08:09:51;;;;;;;7.10;6.30;;;17.60;77.50;;;;;;2615366;46;20431;-73
2022/09/21 08:15:39;;;;;;;6.80;5.50;;;17.30;83.10;;;;;;2613960;54;20122;-74
2022/09/21 08:21:27;;;;;;;10.50;6.33;;;17.90;60.60;;;;;;2615523;54;20123;-72
2022/09/21 08:27:15;;;;;;;7.07;4.90;;;16.70;69.60;;;;;;2615595;54;20750;-71
2022/09/21 08:33:03;;;;;;;5.43;3.97;;;18.20;66.00;;;;;;2614264;54;20282;-72
2022/09/21 08:42:38;;;;;;;9.10;4.20;;;17.70;48.30;;;;;;2614789;54;20395;-72
2022/09/21 08:48:30;;;;;;;7.07;4.68;;;20.10;39.20;;;;;;2615244;54;20134;-72
2022/09/21 09:01:14;;;;;;;6.53;3.23;;;18.60;43.90;;;;;;2613158;54;20436;-73
2022/09/21 09:14:26;;;;;;;4.90;3.30;;;18.60;35.60;;;;;;2613550;54;20432;-71
2022/09/21 09:17:29;;;;;;;5.03;3.20;;;19.00;40.30;;;;;;2614048;54;20965;-72
2022/09/21 09:26:17;;;;;;;6.28;3.25;;;19.80;36.50;;;;;;2614656;54;20505;-73
2022/09/21 09:32:04;;;;;;;4.72;3.40;;;19.20;30.30;;;;;;2613892;54;20424;-72
2022/09/21 09:37:59;;;;;;;4.07;2.60;;;19.80;29.10;;;;;;2614755;39;20776;-72
2022/09/21 09:44:05;;;;;;;3.17;2.90;;;19.40;27.40;;;;;;2613889;54;20422;-73
2022/09/21 09:50:10;;;;;;;3.03;2.70;;;20.00;25.40;;;;;;2616405;54;20390;-72
2022/09/21 09:55:59;;;;;;;5.13;3.40;;;19.50;25.50;;;;;;2614340;54;20523;-74
2022/09/21 10:08:35;;;;;;;4.10;2.63;;;20.20;22.80;;;;;;2615090;54;20394;-71
2022/09/21 10:14:24;;;;;;;6.00;2.90;;;19.00;25.90;;;;;;2614863;54;20402;-73
2022/09/21 10:20:17;;;;;;;4.80;3.00;;;19.80;23.40;;;;;;2615369;54;20386;-73
2022/09/21 10:26:11;;;;;;;4.00;3.00;;;21.00;18.80;;;;;;2615447;54;20391;-73
2022/09/21 10:32:02;;;;;;;3.00;2.70;;;20.80;18.20;;;;;;2615062;54;20223;-73
2022/09/21 10:44:27;;;;;;;3.70;3.33;;;21.30;18.10;;;;;;2614247;46;20407;-73
2022/09/21 10:50:29;;;;;;;5.40;2.53;;;19.80;24.60;;;;;;2615184;54;20375;-73
2022/09/21 10:56:17;;;;;;;3.80;3.10;;;19.60;21.80;;;;;;2615168;46;20387;-73
2022/09/21 11:02:28;;;;;;;4.43;2.90;;;20.40;23.10;;;;;;2615007;54;20403;-72
2022/09/21 11:18:59;;;;;;;4.10;3.00;;;19.40;21.10;;;;;;2613792;46;20842;-73
2022/09/21 11:31:05;;;;;;;4.57;2.90;;;20.00;15.30;;;;;;2615138;54;20976;-73
2022/09/21 12:16:50;;;;;;;5.60;3.07;;;21.70;10.60;;;;;;2615273;54;20379;-74
2022/09/21 12:22:41;;;;;;;6.88;3.30;;;22.70;11.10;;;;;;2614895;54;20422;-73
2022/09/21 12:28:46;;;;;;;3.42;2.80;;;21.20;11.80;;;;;;2615163;54;20392;-72
2022/09/21 12:34:41;;;;;;;4.10;2.93;;;22.00;11.80;;;;;;2614943;54;20157;-73
2022/09/21 12:38:06;;;;;;;4.37;2.90;;;21.70;13.30;;;;;;2615059;54;20476;-73
2022/09/21 12:47:15;;;;;;;4.33;3.27;;;23.40;7.30;;;;;;2615103;54;20428;-73
2022/09/21 12:53:03;;;;;;;3.53;3.00;;;21.10;9.60;;;;;;2615323;54;20531;-73
2022/09/21 13:05:51;;;;;;;3.50;3.20;;;19.80;10.80;;;;;;2614611;54;20383;-72
2022/09/21 13:15:47;;;;;;;3.80;2.83;;;19.80;11.80;;;;;;2612162;54;20438;-73
2022/09/21 13:21:35;;;;;;;4.10;3.70;;;18.90;10.20;;;;;;2613052;54;20537;-74
2022/09/21 13:27:24;;;;;;;3.40;3.17;;;19.00;11.50;;;;;;2612958;54;20121;-72
2022/09/21 13:33:16;;;;;;;3.60;3.20;;;19.10;11.50;;;;;;2613528;54;20931;-72
2022/09/21 13:42:35;;;;;;;4.18;3.20;;;18.70;11.40;;;;;;2614789;39;20746;-72
2022/09/21 13:48:28;;;;;;;3.20;3.00;;;18.60;10.10;;;;;;2614900;47;20825;-73
2022/09/21 13:54:16;;;;;;;3.13;2.92;;;18.40;9.50;;;;;;2613733;39;20798;-73
2022/09/21 14:00:11;;;;;;;5.17;3.30;;;19.50;12.50;;;;;;2614936;54;20987;-73
2022/09/21 14:06:12;;;;;;;3.47;3.00;;;19.20;9.00;;;;;;2615359;39;20775;-72
2022/09/21 14:12:07;;;;;;;5.78;3.10;;;18.30;11.30;;;;;;2616485;31;20826;-73
2022/09/21 14:18:17;;;;;;;3.60;3.30;;;17.80;13.10;;;;;;2613810;54;20396;-73
2022/09/21 14:37:39;;;;;;;3.03;2.80;;;17.10;11.50;;;;;;2614136;54;20964;-72
2022/09/21 14:43:34;;;;;;;5.33;4.90;;;17.20;13.40;;;;;;2613937;54;20392;-73
2022/09/21 14:56:19;;;;;;;7.50;3.40;;;20.70;11.70;;;;;;2614047;54;20430;-72
2022/09/21 15:16:08;;;;;;;4.20;3.60;;;22.00;5.90;;;;;;2613732;54;20446;-72
2022/09/21 15:18:40;;;;;;;4.87;3.60;;;22.60;5.30;;;;;;2612457;54;20443;-73
2022/09/21 15:24:32;;;;;;;7.23;4.27;;;22.00;6.70;;;;;;2613479;54;20377;-72
2022/09/21 15:27:51;;;;;;;4.13;3.60;;;22.00;6.60;;;;;;2614140;39;20793;-73
2022/09/21 15:33:41;;;;;;;6.33;3.20;;;19.60;8.50;;;;;;2614156;54;20426;-72
2022/09/21 15:49:25;;;;;;;4.40;3.10;;;19.40;9.30;;;;;;2615137;54;20391;-73
2022/09/21 15:55:20;;;;;;;3.50;3.20;;;19.50;9.90;;;;;;2615098;54;20398;-73
2022/09/21 16:01:20;;;;;;;4.67;3.90;;;19.30;10.50;;;;;;2614359;54;20379;-72
2022/09/21 16:07:29;;;;;;;5.57;3.40;;;19.00;12.00;;;;;;2614477;54;20367;-74
2022/09/21 16:26:04;;;;;;;5.30;4.27;;;19.50;13.20;;;;;;2614420;54;20395;-72
2022/09/21 16:32:17;;;;;;;6.53;4.10;;;19.90;11.50;;;;;;2614524;54;21495;-72
2022/09/21 16:38:06;;;;;;;4.13;3.73;;;19.70;13.10;;;;;;2614911;54;21016;-73
2022/09/21 16:43:56;;;;;;;5.10;3.50;;;19.10;13.00;;;;;;2613774;54;20421;-72
2022/09/21 16:49:43;;;;;;;4.57;4.10;;;18.00;14.10;;;;;;2614810;54;20429;-73
2022/09/21 16:55:33;;;;;;;10.67;5.70;;;18.30;16.30;;;;;;2614971;54;20147;-72
2022/09/21 17:01:21;;;;;;;6.37;4.00;;;16.80;19.50;;;;;;2613590;54;20167;-73
2022/09/21 17:07:13;;;;;;;5.20;3.77;;;16.00;28.30;;;;;;2615239;54;20154;-72
2022/09/21 17:13:05;;;;;;;5.50;3.97;;;15.40;35.20;;;;;;2614932;54;20375;-73
2022/09/21 17:18:53;;;;;;;4.10;3.80;;;14.90;41.90;;;;;;2613541;54;20391;-73
2022/09/21 17:24:40;;;;;;;4.50;4.10;;;14.50;53.30;;;;;;2614915;54;20131;-73
2022/09/21 17:30:29;;;;;;;11.63;4.47;;;14.10;68.80;;;;;;2614649;54;20134;-73
2022/09/21 17:36:17;;;;;;;5.63;4.50;;;13.60;90.80;;;;;;2613575;54;20150;-74
2022/09/21 17:45:31;;;;;;;6.63;4.90;;;13.30;99.90;;;;;;2616265;31;20825;-75
2022/09/21 17:53:33;;;;;;;6.57;5.90;;;13.10;99.90;;;;;;2615067;39;20453;-75
2022/09/21 18:03:50;;;;;;;8.40;5.47;;;12.40;99.90;;;;;;2615580;54;20383;-73
2022/09/21 18:09:38;;;;;;;7.20;5.47;;;12.30;99.90;;;;;;2615924;54;20470;-74
2022/09/21 18:15:32;;;;;;;6.13;5.47;;;12.10;99.90;;;;;;2614728;54;20126;-73
2022/09/21 18:21:23;;;;;;;6.70;6.10;;;11.80;99.90;;;;;;2615814;39;20844;-73
2022/09/21 18:27:11;;;;;;;9.80;6.60;;;11.70;99.90;;;;;;2615608;54;20417;-74
2022/09/21 18:59:28;;;;;;;8.13;6.87;;;10.90;99.90;;;;;;2613931;54;20390;-73
2022/09/21 19:05:16;;;;;;;8.70;7.47;;;10.70;99.90;;;;;;2613437;54;20246;-74
2022/09/21 19:15:38;;;;;;;12.77;8.38;;;10.40;99.90;;;;;;2612348;54;20527;-73
2022/09/21 19:25:40;;;;;;;11.10;10.10;;;10.20;99.90;;;;;;2613347;54;20451;-73
2022/09/21 19:31:28;;;;;;;10.73;9.60;;;10.10;99.90;;;;;;2614684;31;20680;-72
2022/09/21 19:37:15;;;;;;;14.80;11.57;;;10.10;99.90;;;;;;2613609;54;20423;-73
2022/09/21 19:43:17;;;;;;;11.80;10.30;;;9.90;99.90;;;;;;2613501;54;20210;-74
2022/09/21 20:01:11;;;;;;;11.67;10.60;;;9.80;99.90;;;;;;2614956;39;20842;-72
2022/09/21 20:07:05;;;;;;;12.33;11.10;;;9.60;99.90;;;;;;2615166;54;20391;-73
2022/09/21 20:13:19;;;;;;;13.50;12.07;;;9.50;99.90;;;;;;2614681;54;20367;-73
2022/09/21 20:32:09;;;;;;;13.13;11.00;;;9.00;99.90;;;;;;2612967;54;20382;-73
2022/09/21 20:37:56;;;;;;;12.60;11.30;;;9.00;99.90;;;;;;2614310;39;20847;-72
2022/09/21 20:43:58;;;;;;;18.60;10.97;;;8.80;99.90;;;;;;2613250;54;20173;-73
2022/09/21 20:49:46;;;;;;;18.77;10.10;;;8.80;99.90;;;;;;2613018;54;20466;-72
2022/09/21 20:55:33;;;;;;;13.67;11.13;;;8.70;99.90;;;;;;2612436;54;20371;-74
2022/09/21 21:01:21;;;;;;;16.70;11.50;;;8.60;99.90;;;;;;2613016;54;20169;-73
2022/09/21 21:07:08;;;;;;;15.37;11.33;;;8.50;99.90;;;;;;2613507;54;20381;-73
2022/09/21 21:12:57;;;;;;;15.30;11.80;;;8.30;99.90;;;;;;2613826;54;20151;-73
2022/09/21 21:16:00;;;;;;;16.13;11.75;;;8.50;99.90;;;;;;2613452;54;20960;-73
2022/09/21 21:18:26;;;;;;;20.57;13.10;;;8.40;99.90;;;;;;2613101;54;20160;-72
2022/09/21 21:30:20;;;;;;;14.93;12.03;;;8.30;99.90;;;;;;2615500;54;20394;-72
2022/09/21 21:36:13;;;;;;;14.05;11.57;;;8.10;99.90;;;;;;2615718;54;20143;-74
2022/09/21 21:45:29;;;;;;;13.07;11.80;;;8.20;99.90;;;;;;2615548;54;20491;-72
2022/09/21 21:51:17;;;;;;;16.00;13.10;;;8.00;99.90;;;;;;2617084;31;20842;-72
2022/09/21 21:57:05;;;;;;;13.27;11.93;;;8.00;99.90;;;;;;2616689;39;20884;-74
2022/09/21 22:02:55;;;;;;;19.93;13.30;;;7.90;99.90;;;;;;2616274;54;20171;-71
2022/09/21 22:08:43;;;;;;;18.10;13.60;;;7.80;99.90;;;;;;2616082;39;20806;-70
2022/09/21 22:14:30;;;;;;;15.70;14.00;;;7.70;99.90;;;;;;2616471;54;20759;-73
2022/09/21 22:20:18;;;;;;;14.48;12.15;;;7.70;99.90;;;;;;2616520;54;20153;-73
2022/09/21 22:26:10;;;;;;;14.23;11.60;;;7.60;99.90;;;;;;2616370;54;20157;-74
2022/09/21 22:31:57;;;;;;;21.30;14.00;;;7.70;99.90;;;;;;2615934;54;20919;-73
2022/09/21 22:37:45;;;;;;;14.50;12.57;;;7.50;99.90;;;;;;2616345;39;20536;-71
2022/09/21 22:40:56;;;;;;;17.17;13.80;;;7.50;99.90;;;;;;2615671;54;20692;-72
2022/09/21 22:43:21;;;;;;;22.20;13.40;;;7.50;99.90;;;;;;2615957;54;20146;-72
2022/09/21 22:49:09;;;;;;;14.80;13.17;;;7.40;99.90;;;;;;2615554;54;20136;-72
2022/09/21 22:54:57;;;;;;;18.10;13.37;;;7.40;99.90;;;;;;2614956;54;20178;-72
2022/09/21 23:00:44;;;;;;;18.80;13.30;;;7.40;99.90;;;;;;2614922;54;20712;-73
2022/09/21 23:06:34;;;;;;;17.27;13.90;;;7.40;99.90;;;;;;2614853;54;20398;-72
2022/09/21 23:12:22;;;;;;;18.60;13.80;;;7.20;99.90;;;;;;2615214;54;20410;-73
2022/09/21 23:18:10;;;;;;;14.90;13.40;;;7.30;99.90;;;;;;2615776;39;20549;-73
2022/09/21 23:24:01;;;;;;;15.50;13.90;;;7.10;99.90;;;;;;2615431;39;20759;-72
2022/09/21 23:29:49;;;;;;;15.77;13.60;;;7.10;99.90;;;;;;2614604;54;20395;-73
2022/09/21 23:35:40;;;;;;;17.30;13.57;;;7.10;99.90;;;;;;2615117;54;20150;-73
2022/09/21 23:45:26;;;;;;;15.90;14.20;;;7.00;99.90;;;;;;2614910;54;20410;-73
2022/09/21 23:51:15;;;;;;;15.73;14.33;;;7.00;99.90;;;;;;2614195;54;20385;-73
2022/09/21 23:57:03;;;;;;;14.20;12.90;;;6.90;99.90;;;;;;2614449;54;20473;-72
